首页
METAR-TAF:

METAR-TAF

机场 :

First Flight Airport

Kill Devil Hills, 北卡罗来纳州, 美国

纬度: 36-01N, 经度: 075-40W, 海拔: 4米

当前天气观测

该预报发布于15分钟前的03:35 UTC
风速10节,风向,有时为15节阵风,在北转西北北转东北之间变化
温度 16°C
湿度 94%
气压 1012 hPa
能見度: 11.3公里
散云层高于3100英尺
阴天层高于5500英尺
小雨

METAR: KFFA 170335Z AUTO 36010G15KT 330V030 7SM -RA SCT031 OVC055 16/15 A2987 RMK AO2 T01560146

时间: 23:50 (03:50 UTC)


TAF: 丢失

超过4000个机场的气象观测和天气预报(METAR&TAF报告)。

可查询的气象台以黄色和红色小点在地图上表示。

将鼠标移到小点上方,可查看气象台名称。

然后点击查看天气观测和预报。

如需切换地图:点击带黑十字的绿色按钮放大地图;点击带横线的绿色按钮缩小地图;或者点击绿色箭头查看邻近地区的地图。


METAR-TAF: